sensor_id;sensor_type;location;lat;lon;timestamp;P1;durP1;ratioP1;P2;durP2;ratioP2
48361;SDS011;34510;51.888;5.670;2023-03-11T00:04:22;663.88;;;168.27;;
48361;SDS011;34510;51.888;5.670;2023-03-11T00:09:25;665.38;;;169.48;;
48361;SDS011;34510;51.888;5.670;2023-03-11T00:14:26;663.08;;;172.23;;
48361;SDS011;34510;51.888;5.670;2023-03-11T00:19:28;660.77;;;172.53;;
48361;SDS011;34510;51.888;5.670;2023-03-11T00:24:30;667.58;;;173.20;;
48361;SDS011;34510;51.888;5.670;2023-03-11T00:29:32;662.08;;;166.85;;
48361;SDS011;34510;51.888;5.670;2023-03-11T00:34:34;667.25;;;177.75;;
48361;SDS011;34510;51.888;5.670;2023-03-11T00:39:36;662.22;;;165.20;;
48361;SDS011;34510;51.888;5.670;2023-03-11T00:44:38;681.17;;;205.07;;
48361;SDS011;34510;51.888;5.670;2023-03-11T00:49:40;664.47;;;190.80;;
48361;SDS011;34510;51.888;5.670;2023-03-11T00:54:42;674.50;;;205.33;;
48361;SDS011;34510;51.888;5.670;2023-03-11T00:59:44;662.03;;;187.40;;
48361;SDS011;34510;51.888;5.670;2023-03-11T01:04:46;664.50;;;193.07;;
48361;SDS011;34510;51.888;5.670;2023-03-11T01:09:48;669.07;;;195.10;;
48361;SDS011;34510;51.888;5.670;2023-03-11T01:14:50;661.03;;;195.90;;
48361;SDS011;34510;51.888;5.670;2023-03-11T01:19:51;662.30;;;189.93;;
48361;SDS011;34510;51.888;5.670;2023-03-11T01:24:55;676.97;;;206.67;;
48361;SDS011;34510;51.888;5.670;2023-03-11T01:29:57;667.80;;;196.03;;
48361;SDS011;34510;51.888;5.670;2023-03-11T01:34:59;665.60;;;198.80;;
48361;SDS011;34510;51.888;5.670;2023-03-11T01:40:01;662.77;;;192.27;;
48361;SDS011;34510;51.888;5.670;2023-03-11T01:45:11;662.17;;;189.70;;
48361;SDS011;34510;51.888;5.670;2023-03-11T01:50:45;659.77;;;191.10;;
48361;SDS011;34510;51.888;5.670;2023-03-11T01:55:51;678.40;;;212.27;;
48361;SDS011;34510;51.888;5.670;2023-03-11T02:00:54;671.03;;;209.67;;
48361;SDS011;34510;51.888;5.670;2023-03-11T02:05:58;663.27;;;176.30;;
48361;SDS011;34510;51.888;5.670;2023-03-11T02:11:04;655.57;;;177.77;;
48361;SDS011;34510;51.888;5.670;2023-03-11T02:16:09;662.50;;;192.70;;
48361;SDS011;34510;51.888;5.670;2023-03-11T02:21:21;660.37;;;177.40;;
48361;SDS011;34510;51.888;5.670;2023-03-11T02:26:34;657.97;;;181.50;;
48361;SDS011;34510;51.888;5.670;2023-03-11T02:31:41;659.83;;;188.53;;
48361;SDS011;34510;51.888;5.670;2023-03-11T02:36:46;666.10;;;202.20;;
48361;SDS011;34510;51.888;5.670;2023-03-11T02:41:48;671.37;;;211.73;;
48361;SDS011;34510;51.888;5.670;2023-03-11T02:46:51;677.40;;;218.07;;
48361;SDS011;34510;51.888;5.670;2023-03-11T02:51:55;670.93;;;212.47;;
48361;SDS011;34510;51.888;5.670;2023-03-11T02:56:57;679.50;;;216.03;;
48361;SDS011;34510;51.888;5.670;2023-03-11T03:02:01;663.10;;;199.13;;
48361;SDS011;34510;51.888;5.670;2023-03-11T03:07:04;673.73;;;217.37;;
48361;SDS011;34510;51.888;5.670;2023-03-11T03:12:06;680.27;;;224.97;;
48361;SDS011;34510;51.888;5.670;2023-03-11T03:17:09;673.93;;;216.53;;
48361;SDS011;34510;51.888;5.670;2023-03-11T03:22:12;678.57;;;220.30;;
48361;SDS011;34510;51.888;5.670;2023-03-11T03:27:15;676.10;;;226.40;;
48361;SDS011;34510;51.888;5.670;2023-03-11T03:32:17;663.80;;;211.70;;
48361;SDS011;34510;51.888;5.670;2023-03-11T03:37:19;671.73;;;216.30;;
48361;SDS011;34510;51.888;5.670;2023-03-11T03:42:21;659.00;;;188.80;;
48361;SDS011;34510;51.888;5.670;2023-03-11T03:47:26;659.80;;;192.23;;
48361;SDS011;34510;51.888;5.670;2023-03-11T03:52:28;656.33;;;179.40;;
48361;SDS011;34510;51.888;5.670;2023-03-11T03:57:30;673.47;;;187.03;;
48361;SDS011;34510;51.888;5.670;2023-03-11T04:02:32;665.70;;;195.57;;
48361;SDS011;34510;51.888;5.670;2023-03-11T04:07:34;661.80;;;190.83;;
48361;SDS011;34510;51.888;5.670;2023-03-11T04:12:39;666.73;;;200.20;;
48361;SDS011;34510;51.888;5.670;2023-03-11T04:17:42;659.10;;;183.83;;
48361;SDS011;34510;51.888;5.670;2023-03-11T04:22:44;654.57;;;178.53;;
48361;SDS011;34510;51.888;5.670;2023-03-11T04:27:46;655.87;;;176.93;;
48361;SDS011;34510;51.888;5.670;2023-03-11T04:32:51;660.20;;;188.20;;
48361;SDS011;34510;51.888;5.670;2023-03-11T04:37:53;665.87;;;190.50;;
48361;SDS011;34510;51.888;5.670;2023-03-11T04:42:57;676.20;;;206.50;;
48361;SDS011;34510;51.888;5.670;2023-03-11T04:48:00;670.90;;;201.23;;
48361;SDS011;34510;51.888;5.670;2023-03-11T04:53:04;662.13;;;188.47;;
48361;SDS011;34510;51.888;5.670;2023-03-11T04:58:06;671.67;;;196.70;;
48361;SDS011;34510;51.888;5.670;2023-03-11T05:03:10;661.87;;;193.13;;
48361;SDS011;34510;51.888;5.670;2023-03-11T05:08:13;667.17;;;195.73;;
48361;SDS011;34510;51.888;5.670;2023-03-11T05:13:15;658.53;;;182.37;;
48361;SDS011;34510;51.888;5.670;2023-03-11T05:18:17;652.90;;;172.77;;
48361;SDS011;34510;51.888;5.670;2023-03-11T05:23:20;648.97;;;166.90;;
48361;SDS011;34510;51.888;5.670;2023-03-11T05:28:22;662.47;;;181.63;;
48361;SDS011;34510;51.888;5.670;2023-03-11T05:33:26;665.20;;;185.77;;
48361;SDS011;34510;51.888;5.670;2023-03-11T05:38:33;672.28;;;197.65;;
48361;SDS011;34510;51.888;5.670;2023-03-11T05:43:36;667.13;;;181.00;;
48361;SDS011;34510;51.888;5.670;2023-03-11T05:48:38;675.13;;;196.67;;
48361;SDS011;34510;51.888;5.670;2023-03-11T05:53:41;658.97;;;178.23;;
48361;SDS011;34510;51.888;5.670;2023-03-11T05:58:52;661.23;;;168.47;;
48361;SDS011;34510;51.888;5.670;2023-03-11T06:03:58;670.33;;;190.50;;
48361;SDS011;34510;51.888;5.670;2023-03-11T06:09:01;672.70;;;191.13;;
48361;SDS011;34510;51.888;5.670;2023-03-11T06:14:04;675.57;;;195.60;;
48361;SDS011;34510;51.888;5.670;2023-03-11T06:19:06;664.73;;;177.17;;
48361;SDS011;34510;51.888;5.670;2023-03-11T06:24:12;675.07;;;195.63;;
48361;SDS011;34510;51.888;5.670;2023-03-11T06:29:14;672.63;;;188.77;;
48361;SDS011;34510;51.888;5.670;2023-03-11T06:34:18;675.13;;;192.73;;
48361;SDS011;34510;51.888;5.670;2023-03-11T06:39:20;669.27;;;175.23;;
48361;SDS011;34510;51.888;5.670;2023-03-11T06:44:24;670.97;;;179.27;;
48361;SDS011;34510;51.888;5.670;2023-03-11T06:49:26;646.27;;;160.20;;
48361;SDS011;34510;51.888;5.670;2023-03-11T06:54:28;657.20;;;168.70;;
48361;SDS011;34510;51.888;5.670;2023-03-11T06:59:30;651.50;;;162.87;;
48361;SDS011;34510;51.888;5.670;2023-03-11T07:04:33;658.60;;;170.77;;
48361;SDS011;34510;51.888;5.670;2023-03-11T07:09:35;657.17;;;169.47;;
48361;SDS011;34510;51.888;5.670;2023-03-11T07:14:39;658.60;;;179.30;;
48361;SDS011;34510;51.888;5.670;2023-03-11T07:19:41;664.57;;;182.40;;
48361;SDS011;34510;51.888;5.670;2023-03-11T07:24:46;673.87;;;196.67;;
48361;SDS011;34510;51.888;5.670;2023-03-11T07:29:49;681.23;;;217.23;;
48361;SDS011;34510;51.888;5.670;2023-03-11T07:34:51;687.10;;;225.07;;
48361;SDS011;34510;51.888;5.670;2023-03-11T07:39:53;670.93;;;205.27;;
48361;SDS011;34510;51.888;5.670;2023-03-11T07:44:55;669.30;;;186.07;;
48361;SDS011;34510;51.888;5.670;2023-03-11T07:49:57;671.47;;;182.65;;
48361;SDS011;34510;51.888;5.670;2023-03-11T07:54:59;692.10;;;246.20;;
48361;SDS011;34510;51.888;5.670;2023-03-11T08:00:01;675.50;;;227.60;;
48361;SDS011;34510;51.888;5.670;2023-03-11T08:05:12;680.67;;;239.67;;
48361;SDS011;34510;51.888;5.670;2023-03-11T08:10:14;688.80;;;259.87;;
48361;SDS011;34510;51.888;5.670;2023-03-11T08:15:16;681.03;;;214.20;;
48361;SDS011;34510;51.888;5.670;2023-03-11T08:20:18;679.43;;;234.90;;
48361;SDS011;34510;51.888;5.670;2023-03-11T08:25:19;688.33;;;269.97;;
48361;SDS011;34510;51.888;5.670;2023-03-11T08:30:21;690.73;;;278.63;;
48361;SDS011;34510;51.888;5.670;2023-03-11T08:35:23;690.00;;;254.83;;
48361;SDS011;34510;51.888;5.670;2023-03-11T08:40:27;683.72;;;234.95;;
48361;SDS011;34510;51.888;5.670;2023-03-11T08:45:29;688.37;;;267.97;;
48361;SDS011;34510;51.888;5.670;2023-03-11T08:50:32;689.80;;;270.17;;
48361;SDS011;34510;51.888;5.670;2023-03-11T08:55:48;689.93;;;260.13;;
48361;SDS011;34510;51.888;5.670;2023-03-11T09:00:51;701.05;;;264.38;;
48361;SDS011;34510;51.888;5.670;2023-03-11T09:05:57;691.50;;;283.20;;
48361;SDS011;34510;51.888;5.670;2023-03-11T09:11:00;704.45;;;280.38;;
48361;SDS011;34510;51.888;5.670;2023-03-11T09:16:02;695.77;;;296.63;;
48361;SDS011;34510;51.888;5.670;2023-03-11T09:21:06;699.97;;;293.37;;
48361;SDS011;34510;51.888;5.670;2023-03-11T09:26:08;698.53;;;312.43;;
48361;SDS011;34510;51.888;5.670;2023-03-11T09:31:10;700.37;;;327.60;;
48361;SDS011;34510;51.888;5.670;2023-03-11T09:36:13;705.63;;;338.90;;
48361;SDS011;34510;51.888;5.670;2023-03-11T09:52:24;716.65;;;330.90;;
48361;SDS011;34510;51.888;5.670;2023-03-11T09:57:32;721.33;;;333.85;;
48361;SDS011;34510;51.888;5.670;2023-03-11T10:02:37;745.42;;;372.67;;
48361;SDS011;34510;51.888;5.670;2023-03-11T10:07:41;746.70;;;384.02;;
48361;SDS011;34510;51.888;5.670;2023-03-11T10:18:42;747.15;;;383.63;;
48361;SDS011;34510;51.888;5.670;2023-03-11T10:34:47;728.60;;;373.23;;
48361;SDS011;34510;51.888;5.670;2023-03-11T10:40:15;754.83;;;403.70;;
48361;SDS011;34510;51.888;5.670;2023-03-11T10:45:24;743.78;;;390.10;;
48361;SDS011;34510;51.888;5.670;2023-03-11T10:50:29;746.70;;;406.45;;
48361;SDS011;34510;51.888;5.670;2023-03-11T10:55:43;729.20;;;419.73;;
48361;SDS011;34510;51.888;5.670;2023-03-11T11:01:04;728.07;;;414.87;;
48361;SDS011;34510;51.888;5.670;2023-03-11T11:11:31;723.60;;;406.27;;
48361;SDS011;34510;51.888;5.670;2023-03-11T11:16:35;719.47;;;387.33;;
48361;SDS011;34510;51.888;5.670;2023-03-11T11:21:39;727.83;;;415.03;;
48361;SDS011;34510;51.888;5.670;2023-03-11T11:27:03;735.60;;;416.00;;
48361;SDS011;34510;51.888;5.670;2023-03-11T11:37:22;738.47;;;362.20;;
48361;SDS011;34510;51.888;5.670;2023-03-11T11:42:27;743.33;;;384.55;;
48361;SDS011;34510;51.888;5.670;2023-03-11T11:47:35;750.50;;;399.98;;
48361;SDS011;34510;51.888;5.670;2023-03-11T11:52:41;741.58;;;376.13;;
48361;SDS011;34510;51.888;5.670;2023-03-11T11:57:47;753.03;;;414.48;;
48361;SDS011;34510;51.888;5.670;2023-03-11T12:18:52;746.88;;;408.10;;
48361;SDS011;34510;51.888;5.670;2023-03-11T12:24:23;758.13;;;438.48;;
48361;SDS011;34510;51.888;5.670;2023-03-11T12:29:28;748.55;;;447.90;;
48361;SDS011;34510;51.888;5.670;2023-03-11T12:34:34;735.63;;;444.20;;
48361;SDS011;34510;51.888;5.670;2023-03-11T12:39:37;754.15;;;448.70;;
48361;SDS011;34510;51.888;5.670;2023-03-11T12:44:40;699.78;;;408.00;;
48361;SDS011;34510;51.888;5.670;2023-03-11T12:49:43;732.35;;;410.23;;
48361;SDS011;34510;51.888;5.670;2023-03-11T13:10:45;697.22;;;417.75;;
48361;SDS011;34510;51.888;5.670;2023-03-11T13:15:52;704.92;;;406.65;;
48361;SDS011;34510;51.888;5.670;2023-03-11T13:20:55;720.67;;;411.45;;
48361;SDS011;34510;51.888;5.670;2023-03-11T13:36:47;706.33;;;432.10;;
48361;SDS011;34510;51.888;5.670;2023-03-11T13:41:51;683.65;;;401.70;;
48361;SDS011;34510;51.888;5.670;2023-03-11T13:46:59;676.58;;;408.52;;
48361;SDS011;34510;51.888;5.670;2023-03-11T13:52:07;668.95;;;404.58;;
48361;SDS011;34510;51.888;5.670;2023-03-11T13:57:22;660.40;;;398.60;;
48361;SDS011;34510;51.888;5.670;2023-03-11T14:02:27;648.15;;;400.00;;
48361;SDS011;34510;51.888;5.670;2023-03-11T14:07:30;633.55;;;363.92;;
48361;SDS011;34510;51.888;5.670;2023-03-11T14:12:38;636.17;;;390.25;;
48361;SDS011;34510;51.888;5.670;2023-03-11T14:17:41;627.60;;;368.58;;
48361;SDS011;34510;51.888;5.670;2023-03-11T14:22:46;605.75;;;369.20;;
48361;SDS011;34510;51.888;5.670;2023-03-11T14:27:54;585.45;;;362.15;;
48361;SDS011;34510;51.888;5.670;2023-03-11T14:33:14;567.72;;;375.17;;
48361;SDS011;34510;51.888;5.670;2023-03-11T14:38:27;574.78;;;380.73;;
48361;SDS011;34510;51.888;5.670;2023-03-11T14:43:32;598.75;;;397.85;;
48361;SDS011;34510;51.888;5.670;2023-03-11T14:48:38;594.55;;;374.77;;
48361;SDS011;34510;51.888;5.670;2023-03-11T14:54:01;611.45;;;405.90;;
48361;SDS011;34510;51.888;5.670;2023-03-11T15:04:19;601.20;;;377.05;;
48361;SDS011;34510;51.888;5.670;2023-03-11T15:09:27;615.83;;;383.25;;
48361;SDS011;34510;51.888;5.670;2023-03-11T15:14:31;588.88;;;387.00;;
48361;SDS011;34510;51.888;5.670;2023-03-11T15:19:37;585.72;;;371.83;;
48361;SDS011;34510;51.888;5.670;2023-03-11T15:24:39;567.42;;;362.25;;
48361;SDS011;34510;51.888;5.670;2023-03-11T15:29:45;577.85;;;372.25;;
48361;SDS011;34510;51.888;5.670;2023-03-11T15:35:11;567.38;;;367.23;;
48361;SDS011;34510;51.888;5.670;2023-03-11T15:45:36;601.72;;;375.58;;
48361;SDS011;34510;51.888;5.670;2023-03-11T15:50:45;599.50;;;365.45;;
48361;SDS011;34510;51.888;5.670;2023-03-11T15:55:56;614.13;;;347.58;;
48361;SDS011;34510;51.888;5.670;2023-03-11T16:01:08;608.75;;;348.50;;
48361;SDS011;34510;51.888;5.670;2023-03-11T16:06:10;597.97;;;348.95;;
48361;SDS011;34510;51.888;5.670;2023-03-11T16:11:13;589.25;;;360.67;;
48361;SDS011;34510;51.888;5.670;2023-03-11T16:16:16;569.95;;;339.77;;
48361;SDS011;34510;51.888;5.670;2023-03-11T16:21:20;578.72;;;344.05;;
48361;SDS011;34510;51.888;5.670;2023-03-11T16:26:24;568.15;;;324.75;;
48361;SDS011;34510;51.888;5.670;2023-03-11T16:31:26;563.63;;;313.92;;
48361;SDS011;34510;51.888;5.670;2023-03-11T16:36:28;572.13;;;316.52;;
48361;SDS011;34510;51.888;5.670;2023-03-11T16:41:39;587.55;;;318.92;;
48361;SDS011;34510;51.888;5.670;2023-03-11T16:46:43;577.15;;;312.52;;
48361;SDS011;34510;51.888;5.670;2023-03-11T16:51:45;568.47;;;316.95;;
48361;SDS011;34510;51.888;5.670;2023-03-11T16:56:47;558.55;;;326.45;;
48361;SDS011;34510;51.888;5.670;2023-03-11T17:01:49;590.97;;;326.67;;
48361;SDS011;34510;51.888;5.670;2023-03-11T17:06:52;549.33;;;299.13;;
48361;SDS011;34510;51.888;5.670;2023-03-11T17:11:55;564.97;;;292.75;;
48361;SDS011;34510;51.888;5.670;2023-03-11T17:16:57;612.75;;;312.63;;
48361;SDS011;34510;51.888;5.670;2023-03-11T17:22:00;607.30;;;303.13;;
48361;SDS011;34510;51.888;5.670;2023-03-11T17:27:03;622.67;;;292.13;;
48361;SDS011;34510;51.888;5.670;2023-03-11T17:32:06;639.95;;;306.35;;
48361;SDS011;34510;51.888;5.670;2023-03-11T17:37:08;675.97;;;307.50;;
48361;SDS011;34510;51.888;5.670;2023-03-11T17:42:10;679.75;;;313.50;;
48361;SDS011;34510;51.888;5.670;2023-03-11T17:47:12;690.95;;;289.77;;
48361;SDS011;34510;51.888;5.670;2023-03-11T17:52:14;715.72;;;327.00;;
48361;SDS011;34510;51.888;5.670;2023-03-11T17:57:16;720.50;;;301.38;;
48361;SDS011;34510;51.888;5.670;2023-03-11T18:02:18;700.25;;;284.40;;
48361;SDS011;34510;51.888;5.670;2023-03-11T18:07:20;686.20;;;289.58;;
48361;SDS011;34510;51.888;5.670;2023-03-11T18:12:24;701.00;;;300.23;;
48361;SDS011;34510;51.888;5.670;2023-03-11T18:17:26;690.85;;;270.38;;
48361;SDS011;34510;51.888;5.670;2023-03-11T18:22:32;693.35;;;283.98;;
48361;SDS011;34510;51.888;5.670;2023-03-11T18:27:36;694.33;;;280.57;;
48361;SDS011;34510;51.888;5.670;2023-03-11T18:32:38;688.03;;;273.67;;
48361;SDS011;34510;51.888;5.670;2023-03-11T18:37:40;659.95;;;253.68;;
48361;SDS011;34510;51.888;5.670;2023-03-11T18:42:42;717.10;;;268.90;;
48361;SDS011;34510;51.888;5.670;2023-03-11T18:47:44;720.60;;;264.55;;
48361;SDS011;34510;51.888;5.670;2023-03-11T18:52:48;716.03;;;246.90;;
48361;SDS011;34510;51.888;5.670;2023-03-11T18:57:52;711.28;;;239.88;;
48361;SDS011;34510;51.888;5.670;2023-03-11T19:02:54;705.20;;;235.50;;
48361;SDS011;34510;51.888;5.670;2023-03-11T19:07:56;713.33;;;255.65;;
48361;SDS011;34510;51.888;5.670;2023-03-11T19:12:58;687.17;;;236.18;;
48361;SDS011;34510;51.888;5.670;2023-03-11T19:18:00;692.15;;;249.52;;
48361;SDS011;34510;51.888;5.670;2023-03-11T19:28:09;705.42;;;256.48;;
48361;SDS011;34510;51.888;5.670;2023-03-11T19:33:11;699.45;;;257.23;;
48361;SDS011;34510;51.888;5.670;2023-03-11T19:38:13;692.75;;;250.20;;
48361;SDS011;34510;51.888;5.670;2023-03-11T19:43:15;704.30;;;258.67;;
48361;SDS011;34510;51.888;5.670;2023-03-11T19:48:19;703.17;;;258.50;;
48361;SDS011;34510;51.888;5.670;2023-03-11T19:53:21;707.92;;;250.52;;
48361;SDS011;34510;51.888;5.670;2023-03-11T19:58:24;708.20;;;243.00;;
48361;SDS011;34510;51.888;5.670;2023-03-11T20:03:30;711.15;;;250.68;;
48361;SDS011;34510;51.888;5.670;2023-03-11T20:08:33;714.58;;;243.93;;
48361;SDS011;34510;51.888;5.670;2023-03-11T20:13:37;698.77;;;251.43;;
48361;SDS011;34510;51.888;5.670;2023-03-11T20:18:41;715.00;;;278.25;;
48361;SDS011;34510;51.888;5.670;2023-03-11T20:23:43;682.97;;;241.70;;
48361;SDS011;34510;51.888;5.670;2023-03-11T20:28:45;682.40;;;256.00;;
48361;SDS011;34510;51.888;5.670;2023-03-11T20:33:48;684.22;;;217.65;;
48361;SDS011;34510;51.888;5.670;2023-03-11T20:38:53;682.05;;;223.70;;
48361;SDS011;34510;51.888;5.670;2023-03-11T20:43:55;686.23;;;226.70;;
48361;SDS011;34510;51.888;5.670;2023-03-11T20:48:58;677.70;;;223.73;;
48361;SDS011;34510;51.888;5.670;2023-03-11T20:54:01;686.90;;;230.73;;
48361;SDS011;34510;51.888;5.670;2023-03-11T20:59:03;682.83;;;212.15;;
48361;SDS011;34510;51.888;5.670;2023-03-11T21:04:07;679.17;;;219.05;;
48361;SDS011;34510;51.888;5.670;2023-03-11T21:09:11;684.85;;;205.05;;
48361;SDS011;34510;51.888;5.670;2023-03-11T21:14:16;684.63;;;208.43;;
48361;SDS011;34510;51.888;5.670;2023-03-11T21:19:19;691.17;;;212.18;;
48361;SDS011;34510;51.888;5.670;2023-03-11T21:24:22;685.88;;;207.35;;
48361;SDS011;34510;51.888;5.670;2023-03-11T21:29:24;687.00;;;203.30;;
48361;SDS011;34510;51.888;5.670;2023-03-11T21:34:26;692.00;;;216.77;;
48361;SDS011;34510;51.888;5.670;2023-03-11T21:39:29;692.13;;;218.23;;
48361;SDS011;34510;51.888;5.670;2023-03-11T21:44:31;686.08;;;213.27;;
48361;SDS011;34510;51.888;5.670;2023-03-11T21:49:33;688.97;;;219.20;;
48361;SDS011;34510;51.888;5.670;2023-03-11T21:54:35;691.65;;;216.20;;
48361;SDS011;34510;51.888;5.670;2023-03-11T21:59:37;690.42;;;216.05;;
48361;SDS011;34510;51.888;5.670;2023-03-11T22:04:39;687.65;;;211.63;;
48361;SDS011;34510;51.888;5.670;2023-03-11T22:09:42;697.25;;;228.20;;
48361;SDS011;34510;51.888;5.670;2023-03-11T22:14:44;693.58;;;216.23;;
48361;SDS011;34510;51.888;5.670;2023-03-11T22:19:46;687.58;;;217.25;;
48361;SDS011;34510;51.888;5.670;2023-03-11T22:24:48;687.63;;;215.10;;
48361;SDS011;34510;51.888;5.670;2023-03-11T22:29:50;692.00;;;222.52;;
48361;SDS011;34510;51.888;5.670;2023-03-11T22:34:52;690.40;;;228.70;;
48361;SDS011;34510;51.888;5.670;2023-03-11T22:39:53;685.35;;;209.07;;
48361;SDS011;34510;51.888;5.670;2023-03-11T22:44:55;695.50;;;224.85;;
48361;SDS011;34510;51.888;5.670;2023-03-11T22:49:57;691.13;;;217.88;;
48361;SDS011;34510;51.888;5.670;2023-03-11T22:54:59;688.70;;;216.80;;
48361;SDS011;34510;51.888;5.670;2023-03-11T23:00:01;685.85;;;208.57;;
48361;SDS011;34510;51.888;5.670;2023-03-11T23:05:05;689.17;;;218.43;;
48361;SDS011;34510;51.888;5.670;2023-03-11T23:10:08;685.67;;;211.15;;
48361;SDS011;34510;51.888;5.670;2023-03-11T23:15:13;685.33;;;208.43;;
48361;SDS011;34510;51.888;5.670;2023-03-11T23:20:17;683.63;;;209.32;;
48361;SDS011;34510;51.888;5.670;2023-03-11T23:25:19;684.65;;;210.88;;
48361;SDS011;34510;51.888;5.670;2023-03-11T23:30:21;685.97;;;208.75;;
48361;SDS011;34510;51.888;5.670;2023-03-11T23:35:23;683.00;;;209.48;;
48361;SDS011;34510;51.888;5.670;2023-03-11T23:40:25;687.30;;;218.25;;
48361;SDS011;34510;51.888;5.670;2023-03-11T23:45:27;685.58;;;215.65;;
48361;SDS011;34510;51.888;5.670;2023-03-11T23:50:29;680.55;;;205.60;;
48361;SDS011;34510;51.888;5.670;2023-03-11T23:55:31;684.03;;;214.93;;
